createdAt,value
2022-09-07T00:00:56.464Z,16.96
2022-09-07T00:03:24.952Z,17.04
2022-09-07T00:05:53.840Z,17.09
2022-09-07T00:08:25.165Z,17.06
2022-09-07T00:10:56.252Z,16.91
2022-09-07T00:13:25.560Z,16.72
2022-09-07T00:15:53.624Z,16.60
2022-09-07T00:18:22.038Z,16.61
2022-09-07T00:20:59.303Z,16.78
2022-09-07T00:23:28.329Z,16.91
2022-09-07T00:26:00.706Z,16.82
2022-09-07T00:28:28.810Z,16.65
2022-09-07T00:30:56.781Z,16.42
2022-09-07T00:33:24.910Z,16.27
2022-09-07T00:35:52.809Z,16.16
2022-09-07T00:38:20.816Z,16.17
2022-09-07T00:40:48.749Z,16.10
2022-09-07T00:43:34.742Z,16.04
2022-09-07T00:46:03.669Z,16.01
2022-09-07T00:48:35.793Z,15.99
2022-09-07T00:51:08.468Z,15.96
2022-09-07T00:53:41.584Z,15.95
2022-09-07T00:56:10.868Z,15.90
2022-09-07T00:58:43.075Z,15.97
2022-09-07T01:01:11.337Z,15.96
2022-09-07T01:03:43.194Z,15.97
2022-09-07T01:06:16.670Z,15.90
2022-09-07T01:08:46.115Z,16.00
2022-09-07T01:11:14.513Z,16.00
2022-09-07T01:13:46.184Z,16.02
2022-09-07T01:16:25.018Z,15.99
2022-09-07T01:19:01.744Z,16.00
2022-09-07T01:21:40.570Z,15.89
2022-09-07T01:24:32.711Z,15.83
2022-09-07T01:27:23.689Z,15.94
2022-09-07T01:30:00.252Z,16.19
2022-09-07T01:32:40.106Z,16.40
2022-09-07T01:35:23.137Z,16.54
2022-09-07T01:37:57.985Z,16.63
2022-09-07T01:40:35.539Z,16.69
2022-09-07T01:43:08.133Z,16.72
2022-09-07T01:45:42.272Z,16.70
2022-09-07T01:48:15.840Z,16.69
2022-09-07T01:50:47.839Z,16.58
2022-09-07T01:53:20.056Z,16.56
2022-09-07T01:55:51.362Z,16.53
2022-09-07T01:58:22.846Z,16.51
2022-09-07T02:00:56.417Z,16.47
2022-09-07T02:03:31.840Z,16.33
2022-09-07T02:06:04.758Z,16.10
2022-09-07T02:08:37.465Z,16.07
2022-09-07T02:11:11.631Z,16.23
2022-09-07T02:13:43.259Z,16.36
2022-09-07T02:16:17.467Z,16.50
2022-09-07T02:18:48.595Z,16.55
2022-09-07T02:21:20.550Z,16.56
2022-09-07T02:23:52.151Z,16.51
2022-09-07T02:26:23.521Z,16.32
2022-09-07T02:28:52.251Z,16.33
2022-09-07T02:31:21.798Z,16.41
2022-09-07T02:33:49.845Z,16.46
2022-09-07T02:36:21.088Z,16.47
2022-09-07T02:38:49.085Z,16.46
2022-09-07T02:41:32.566Z,16.43
2022-09-07T02:44:01.702Z,16.43
2022-09-07T02:46:43.166Z,16.48
2022-09-07T02:49:26.346Z,16.51
2022-09-07T02:52:06.873Z,16.43
2022-09-07T02:54:50.137Z,16.47
2022-09-07T02:57:27.396Z,16.35
2022-09-07T03:00:05.661Z,16.20
2022-09-07T03:02:44.276Z,15.99
2022-09-07T03:05:19.878Z,15.97
2022-09-07T03:07:53.903Z,16.00
2022-09-07T03:10:22.397Z,15.94
2022-09-07T03:12:51.388Z,15.77
2022-09-07T03:15:21.662Z,15.78
2022-09-07T03:17:51.033Z,15.75
2022-09-07T03:20:20.046Z,15.78
2022-09-07T03:22:49.680Z,15.77
2022-09-07T03:25:17.985Z,15.77
2022-09-07T03:27:46.281Z,15.76
2022-09-07T03:30:15.318Z,15.73
2022-09-07T03:32:46.040Z,15.68
2022-09-07T03:35:16.784Z,15.67
2022-09-07T03:37:44.856Z,15.77
2022-09-07T03:40:15.083Z,15.82
2022-09-07T03:42:43.757Z,15.93
2022-09-07T03:45:12.306Z,15.97
2022-09-07T03:47:40.667Z,15.98
2022-09-07T03:50:09.380Z,15.99
2022-09-07T03:52:39.213Z,16.05
2022-09-07T03:55:07.747Z,16.00
2022-09-07T03:57:36.134Z,16.06
2022-09-07T04:00:05.309Z,16.12
2022-09-07T04:02:40.425Z,16.20
2022-09-07T04:05:09.273Z,16.24
2022-09-07T04:07:38.559Z,16.25
2022-09-07T04:10:07.120Z,16.22
2022-09-07T04:12:35.010Z,16.21
2022-09-07T04:15:02.925Z,16.21
2022-09-07T04:17:31.249Z,16.15
2022-09-07T04:19:59.162Z,16.23
2022-09-07T04:22:27.041Z,16.26
2022-09-07T04:24:56.356Z,16.25
2022-09-07T04:27:24.252Z,16.24
2022-09-07T04:29:52.124Z,16.26
2022-09-07T04:32:20.014Z,16.22
2022-09-07T04:34:48.793Z,16.22
2022-09-07T04:37:16.707Z,16.26
2022-09-07T04:39:44.608Z,16.28
2022-09-07T04:42:13.979Z,16.27
2022-09-07T04:44:41.945Z,16.24
2022-09-07T04:47:09.879Z,16.30
2022-09-07T04:49:38.652Z,16.25
2022-09-07T04:52:06.580Z,16.30
2022-09-07T04:54:34.517Z,16.31
2022-09-07T04:57:02.413Z,16.23
2022-09-07T04:59:31.750Z,16.14
2022-09-07T05:02:00.409Z,16.14
2022-09-07T05:04:28.357Z,16.28
2022-09-07T05:06:56.268Z,16.33
2022-09-07T05:09:24.167Z,16.37
2022-09-07T05:11:52.377Z,16.42
2022-09-07T05:14:20.245Z,16.50
2022-09-07T05:16:49.612Z,16.57
2022-09-07T05:19:18.200Z,16.63
2022-09-07T05:21:46.101Z,16.67
2022-09-07T05:24:14.090Z,16.71
2022-09-07T05:26:42.345Z,16.77
2022-09-07T05:32:00.906Z,16.77
2022-09-07T05:37:01.979Z,16.72
2022-09-07T05:39:30.403Z,16.69
2022-09-07T05:41:58.448Z,16.76
2022-09-07T05:47:11.585Z,16.86
2022-09-07T05:49:39.615Z,16.91
2022-09-07T05:52:07.765Z,16.99
2022-09-07T05:54:35.696Z,17.06
2022-09-07T05:57:03.983Z,17.11
2022-09-07T05:59:31.941Z,17.15
2022-09-07T06:02:00.425Z,17.15
2022-09-07T06:04:29.742Z,17.08
2022-09-07T06:07:21.011Z,17.10
2022-09-07T06:12:33.640Z,17.17
2022-09-07T06:15:02.048Z,17.21
2022-09-07T06:17:30.993Z,17.24
2022-09-07T06:20:00.721Z,17.28
2022-09-07T06:22:30.950Z,17.37
2022-09-07T06:24:59.696Z,17.36
2022-09-07T06:27:27.670Z,17.44
2022-09-07T06:29:55.988Z,17.51
2022-09-07T06:35:13.502Z,17.57
2022-09-07T06:37:41.971Z,17.58
2022-09-07T06:40:11.654Z,17.62
2022-09-07T06:42:39.705Z,17.66
2022-09-07T06:45:11.294Z,17.69
2022-09-07T06:47:39.910Z,17.70
2022-09-07T06:50:09.042Z,17.64
2022-09-07T06:55:28.688Z,17.78
2022-09-07T06:57:56.624Z,17.88
2022-09-07T07:00:24.725Z,17.90
2022-09-07T07:02:52.954Z,17.94
2022-09-07T07:05:21.166Z,17.96
2022-09-07T07:07:50.644Z,17.96
2022-09-07T07:10:23.725Z,18.08
2022-09-07T07:12:56.717Z,18.20
2022-09-07T07:15:26.689Z,18.31
2022-09-07T07:17:59.177Z,18.45
2022-09-07T07:20:33.730Z,18.56
2022-09-07T07:23:03.309Z,18.71
2022-09-07T07:25:31.508Z,18.82
2022-09-07T07:30:47.413Z,18.97
2022-09-07T07:33:15.329Z,19.05
2022-09-07T07:35:43.272Z,19.06
2022-09-07T07:43:48.696Z,18.91
2022-09-07T07:46:17.567Z,18.88
2022-09-07T07:48:48.906Z,18.81
2022-09-07T07:51:16.780Z,18.88
2022-09-07T07:53:46.173Z,18.88
2022-09-07T07:56:14.673Z,18.90
2022-09-07T07:58:46.661Z,18.90
2022-09-07T08:01:16.385Z,18.96
2022-09-07T08:03:45.915Z,19.00
2022-09-07T08:06:15.510Z,19.06
2022-09-07T08:08:44.644Z,19.05
2022-09-07T08:11:16.857Z,19.13
2022-09-07T08:13:46.309Z,19.15
2022-09-07T08:16:15.201Z,19.20
2022-09-07T08:18:46.946Z,19.24
2022-09-07T08:21:16.860Z,19.26
2022-09-07T08:23:44.700Z,19.27
2022-09-07T08:26:14.106Z,19.28
2022-09-07T08:28:45.478Z,19.31
2022-09-07T08:31:15.454Z,19.39
2022-09-07T08:33:43.919Z,19.51
2022-09-07T08:36:13.992Z,19.57
2022-09-07T08:38:42.646Z,19.53
2022-09-07T08:41:50.892Z,19.69
2022-09-07T08:44:23.463Z,19.74
2022-09-07T08:46:55.805Z,19.79
2022-09-07T08:49:31.159Z,19.83
2022-09-07T08:52:02.747Z,19.86
2022-09-07T08:54:30.741Z,19.91
2022-09-07T09:00:02.047Z,20.02
2022-09-07T09:02:33.652Z,20.09
2022-09-07T09:05:21.272Z,20.13
2022-09-07T09:08:04.101Z,20.19
2022-09-07T09:10:40.727Z,20.25
2022-09-07T09:13:18.309Z,20.30
2022-09-07T09:15:56.134Z,20.30
2022-09-07T09:18:44.653Z,20.29
2022-09-07T09:21:16.000Z,20.24
2022-09-07T09:23:45.483Z,20.20
2022-09-07T09:26:16.628Z,20.18
2022-09-07T09:28:45.811Z,20.27
2022-09-07T09:31:19.186Z,20.33
2022-09-07T09:34:09.109Z,20.51
2022-09-07T09:36:43.145Z,20.54
2022-09-07T09:39:29.710Z,20.55
2022-09-07T09:42:00.814Z,20.55
2022-09-07T09:44:34.714Z,20.57
2022-09-07T09:49:53.527Z,20.65
2022-09-07T09:52:29.964Z,20.65
2022-09-07T09:55:23.200Z,20.69
2022-09-07T10:04:01.545Z,20.73
2022-09-07T10:06:32.324Z,20.75
2022-09-07T10:09:02.336Z,20.72
2022-09-07T10:14:36.118Z,20.69
2022-09-07T10:17:14.971Z,20.74
2022-09-07T10:19:44.063Z,20.83
2022-09-07T10:22:24.996Z,20.89
2022-09-07T10:24:53.016Z,20.92
2022-09-07T10:27:22.140Z,20.99
2022-09-07T10:29:49.956Z,21.04
2022-09-07T10:32:28.780Z,21.11
2022-09-07T10:35:07.025Z,21.18
2022-09-07T10:37:52.141Z,21.22
2022-09-07T10:40:29.536Z,21.23
2022-09-07T10:43:22.252Z,21.26
2022-09-07T10:46:03.527Z,21.28
2022-09-07T10:48:39.434Z,21.27
2022-09-07T10:51:14.668Z,21.26
2022-09-07T10:56:54.247Z,21.29
2022-09-07T11:02:31.045Z,21.39
2022-09-07T11:05:09.956Z,21.41
2022-09-07T11:08:02.913Z,21.37
2022-09-07T11:10:43.178Z,21.37
2022-09-07T11:13:22.350Z,21.40
2022-09-07T11:15:54.793Z,21.49
2022-09-07T11:18:28.547Z,21.57
2022-09-07T11:21:00.958Z,21.68
2022-09-07T11:23:37.865Z,21.92
2022-09-07T11:26:18.158Z,21.97
2022-09-07T11:29:29.280Z,21.88
2022-09-07T11:31:41.956Z,21.86
2022-09-07T11:34:24.592Z,21.83
2022-09-07T11:36:58.441Z,21.78
2022-09-07T11:39:31.570Z,21.86
2022-09-07T11:42:42.868Z,21.90
2022-09-07T11:44:56.908Z,21.92
2022-09-07T11:47:31.000Z,21.89
2022-09-07T11:49:59.625Z,21.93
2022-09-07T11:52:35.306Z,22.03
2022-09-07T11:55:07.380Z,22.14
2022-09-07T11:57:53.677Z,22.22
2022-09-07T12:00:30.026Z,22.36
2022-09-07T12:03:39.040Z,22.44
2022-09-07T12:06:28.443Z,22.56
2022-09-07T12:09:14.721Z,22.66
2022-09-07T12:12:12.438Z,22.73
2022-09-07T12:14:56.337Z,22.73
2022-09-07T12:17:36.401Z,22.85
2022-09-07T12:20:15.568Z,22.98
2022-09-07T12:23:02.198Z,23.10
2022-09-07T12:25:33.379Z,23.17
2022-09-07T12:28:02.164Z,23.23
2022-09-07T12:30:55.662Z,23.36
2022-09-07T12:33:32.249Z,23.50
2022-09-07T12:36:01.029Z,23.62
2022-09-07T12:39:24.766Z,23.67
2022-09-07T12:44:43.012Z,23.92
2022-09-07T12:47:30.961Z,24.08
2022-09-07T12:50:29.472Z,24.27
2022-09-07T12:53:21.132Z,24.31
2022-09-07T12:56:17.547Z,24.46
2022-09-07T12:59:06.256Z,24.58
2022-09-07T13:01:47.325Z,24.75
2022-09-07T13:04:31.848Z,24.86
2022-09-07T13:07:38.617Z,25.04
2022-09-07T13:10:31.176Z,25.13
2022-09-07T13:13:04.455Z,25.22
2022-09-07T13:15:44.436Z,25.28
2022-09-07T13:18:28.518Z,25.46
2022-09-07T13:21:33.187Z,25.67
2022-09-07T13:24:47.286Z,25.78
2022-09-07T13:27:30.193Z,25.83
2022-09-07T13:30:03.035Z,25.91
2022-09-07T13:35:23.647Z,26.11
2022-09-07T13:37:56.098Z,26.25
2022-09-07T13:40:27.542Z,26.37
2022-09-07T13:42:57.733Z,26.47
2022-09-07T13:45:33.202Z,26.60
2022-09-07T13:48:14.227Z,26.63
2022-09-07T13:50:48.301Z,26.79
2022-09-07T13:53:35.210Z,26.92
2022-09-07T13:56:16.508Z,27.00
2022-09-07T13:58:47.347Z,27.12
2022-09-07T14:01:20.986Z,27.27
2022-09-07T14:03:52.289Z,27.32
2022-09-07T14:06:32.586Z,27.40
2022-09-07T14:09:04.535Z,27.46
2022-09-07T14:11:41.494Z,27.65
2022-09-07T14:14:23.561Z,27.84
2022-09-07T14:16:57.514Z,27.92
2022-09-07T14:19:28.068Z,28.09
2022-09-07T14:21:57.825Z,28.11
2022-09-07T14:24:34.289Z,28.13
2022-09-07T14:27:02.641Z,28.12
2022-09-07T14:29:32.432Z,28.34
2022-09-07T14:32:02.046Z,28.46
2022-09-07T14:34:34.642Z,28.45
2022-09-07T14:37:06.765Z,28.46
2022-09-07T14:39:40.445Z,28.50
2022-09-07T14:42:11.570Z,28.63
2022-09-07T14:44:42.947Z,28.81
2022-09-07T14:47:24.400Z,28.93
2022-09-07T14:49:53.065Z,29.04
2022-09-07T14:52:24.333Z,28.95
2022-09-07T14:54:54.600Z,28.86
2022-09-07T14:57:31.716Z,28.99
2022-09-07T15:00:19.621Z,29.06
2022-09-07T15:02:47.649Z,29.03
2022-09-07T15:05:25.773Z,29.10
2022-09-07T15:07:56.039Z,29.20
2022-09-07T15:10:32.746Z,29.26
2022-09-07T15:13:01.988Z,29.23
2022-09-07T15:15:32.995Z,29.26
2022-09-07T15:18:08.747Z,28.97
2022-09-07T15:20:43.159Z,28.54
2022-09-07T15:23:13.344Z,28.17
2022-09-07T15:25:48.231Z,27.81
2022-09-07T15:34:02.814Z,26.90
2022-09-07T15:36:32.090Z,26.71
2022-09-07T15:39:00.668Z,26.48
2022-09-07T15:41:30.397Z,26.32
2022-09-07T15:43:58.213Z,26.18
2022-09-07T15:46:26.383Z,26.02
2022-09-07T15:48:56.100Z,25.88
2022-09-07T15:54:14.267Z,25.65
2022-09-07T15:57:48.077Z,25.46
2022-09-07T15:59:32.401Z,25.38
2022-09-07T16:02:00.700Z,25.29
2022-09-07T16:04:28.881Z,25.18
2022-09-07T16:06:56.791Z,25.11
2022-09-07T16:09:24.927Z,25.00
2022-09-07T16:11:54.764Z,24.93
2022-09-07T16:14:22.991Z,24.82
2022-09-07T16:19:41.097Z,24.65
2022-09-07T16:22:09.651Z,24.58
2022-09-07T16:24:37.726Z,24.50
2022-09-07T16:27:07.149Z,24.43
2022-09-07T16:29:34.989Z,24.36
2022-09-07T16:34:51.725Z,24.22
2022-09-07T16:37:19.629Z,24.14
2022-09-07T16:39:47.457Z,24.10
2022-09-07T16:42:16.657Z,24.03
2022-09-07T16:44:44.524Z,23.91
2022-09-07T16:47:12.756Z,23.86
2022-09-07T16:49:40.633Z,23.79
2022-09-07T16:52:10.946Z,23.79
2022-09-07T16:54:38.855Z,23.74
2022-09-07T16:57:06.795Z,23.67
2022-09-07T16:59:35.974Z,23.59
2022-09-07T17:02:03.819Z,23.54
2022-09-07T17:04:31.801Z,23.48
2022-09-07T17:06:59.613Z,23.40
2022-09-07T17:09:28.625Z,23.36
2022-09-07T17:11:56.485Z,23.32
2022-09-07T17:14:24.323Z,23.22
2022-09-07T17:16:53.514Z,23.21
2022-09-07T17:19:30.068Z,23.15
2022-09-07T17:21:59.682Z,23.10
2022-09-07T17:24:27.575Z,22.99
2022-09-07T17:26:55.528Z,22.98
2022-09-07T17:29:23.344Z,22.94
2022-09-07T17:34:40.620Z,22.85
2022-09-07T17:37:09.372Z,22.82
2022-09-07T17:39:38.629Z,22.79
2022-09-07T17:42:07.310Z,22.75
2022-09-07T17:44:38.059Z,22.72
2022-09-07T17:47:08.004Z,22.70
2022-09-07T17:49:35.812Z,22.67
2022-09-07T17:52:03.891Z,22.63
2022-09-07T17:54:31.889Z,22.57
2022-09-07T17:56:59.859Z,22.54
2022-09-07T18:02:16.957Z,22.45
2022-09-07T18:04:44.856Z,22.44
2022-09-07T18:07:13.098Z,22.40
2022-09-07T18:09:40.891Z,22.35
2022-09-07T18:12:09.003Z,22.33
2022-09-07T18:14:36.880Z,22.32
2022-09-07T18:17:05.072Z,22.33
2022-09-07T18:19:34.430Z,22.34
2022-09-07T18:22:03.817Z,22.33
2022-09-07T18:24:31.791Z,22.32
2022-09-07T18:26:59.574Z,22.32
2022-09-07T18:29:31.068Z,22.29
2022-09-07T18:32:01.168Z,22.27
2022-09-07T18:34:30.705Z,22.27
2022-09-07T18:37:00.216Z,22.26
2022-09-07T18:39:29.043Z,22.26
2022-09-07T18:41:57.329Z,22.25
2022-09-07T18:47:21.764Z,22.23
2022-09-07T18:49:51.274Z,22.17
2022-09-07T18:55:10.287Z,22.12
2022-09-07T18:57:38.849Z,22.13
2022-09-07T19:00:09.437Z,22.12
2022-09-07T19:02:37.344Z,22.10
2022-09-07T19:07:55.226Z,22.06
2022-09-07T19:10:23.037Z,22.07
2022-09-07T19:12:50.892Z,22.07
2022-09-07T19:15:20.358Z,22.06
2022-09-07T19:17:48.165Z,22.03
2022-09-07T19:20:15.987Z,22.03
2022-09-07T19:22:43.852Z,21.98
2022-09-07T19:25:13.047Z,21.94
2022-09-07T19:27:40.868Z,21.90
2022-09-07T19:30:10.073Z,21.88
2022-09-07T19:32:38.045Z,21.89
2022-09-07T19:35:06.393Z,21.87
2022-09-07T19:37:34.702Z,21.85
2022-09-07T19:40:02.938Z,21.86
2022-09-07T19:42:32.669Z,21.83
2022-09-07T19:45:00.833Z,21.77
2022-09-07T19:47:28.617Z,21.73
2022-09-07T19:49:56.400Z,21.67
2022-09-07T19:52:24.209Z,21.62
2022-09-07T19:54:51.982Z,21.60
2022-09-07T19:57:19.822Z,21.54
2022-09-07T19:59:48.929Z,21.50
2022-09-07T20:02:16.804Z,21.49
2022-09-07T20:04:44.593Z,21.44
2022-09-07T20:07:13.341Z,21.43
2022-09-07T20:09:41.157Z,21.44
2022-09-07T20:12:09.956Z,21.47
2022-09-07T20:14:38.043Z,21.51
2022-09-07T20:17:07.196Z,21.50
2022-09-07T20:19:35.005Z,21.51
2022-09-07T20:22:02.787Z,21.45
2022-09-07T20:24:31.288Z,21.35
2022-09-07T20:26:59.091Z,21.29
2022-09-07T20:29:28.592Z,21.27
2022-09-07T20:31:57.693Z,21.25
2022-09-07T20:34:27.348Z,21.21
2022-09-07T20:36:56.718Z,21.17
2022-09-07T20:39:24.560Z,21.12
2022-09-07T20:41:52.629Z,21.07
2022-09-07T20:44:20.641Z,20.96
2022-09-07T20:46:48.580Z,20.95
2022-09-07T20:49:16.929Z,20.92
2022-09-07T20:51:46.095Z,20.93
2022-09-07T20:54:13.907Z,20.91
2022-09-07T20:56:41.708Z,20.89
2022-09-07T20:59:09.705Z,20.89
2022-09-07T21:01:37.512Z,20.88
2022-09-07T21:04:06.178Z,20.85
2022-09-07T21:06:34.289Z,20.79
2022-09-07T21:09:03.487Z,20.68
2022-09-07T21:11:33.547Z,20.55
2022-09-07T21:14:02.925Z,20.48
2022-09-07T21:16:30.955Z,20.44
2022-09-07T21:19:00.849Z,20.38
2022-09-07T21:21:30.032Z,20.36
2022-09-07T21:24:00.149Z,20.35
2022-09-07T21:26:29.725Z,20.39
2022-09-07T21:28:58.951Z,20.37
2022-09-07T21:31:27.239Z,20.38
2022-09-07T21:33:56.849Z,20.46
2022-09-07T21:36:25.613Z,20.54
2022-09-07T21:38:54.410Z,20.62
2022-09-07T21:41:23.907Z,20.70
2022-09-07T21:43:56.425Z,20.74
2022-09-07T21:46:25.177Z,20.78
2022-09-07T21:48:53.160Z,20.78
2022-09-07T21:51:21.058Z,20.78
2022-09-07T21:53:53.594Z,20.83
2022-09-07T21:56:22.301Z,20.88
2022-09-07T21:58:54.127Z,20.90
2022-09-07T22:01:24.886Z,20.93
2022-09-07T22:03:56.238Z,20.93
2022-09-07T22:06:24.928Z,20.89
2022-09-07T22:08:53.400Z,20.83
2022-09-07T22:11:23.530Z,20.63
2022-09-07T22:13:55.480Z,20.63
2022-09-07T22:16:24.826Z,20.68
2022-09-07T22:18:53.306Z,20.64
2022-09-07T22:21:23.989Z,20.58
2022-09-07T22:23:53.633Z,20.61
2022-09-07T22:26:23.804Z,20.62
2022-09-07T22:28:51.968Z,20.63
2022-09-07T22:31:22.371Z,20.53
2022-09-07T22:33:52.715Z,20.47
2022-09-07T22:36:22.981Z,20.42
2022-09-07T22:38:53.916Z,20.37
2022-09-07T22:41:24.039Z,20.27
2022-09-07T22:43:51.890Z,20.37
2022-09-07T22:46:22.273Z,20.36
2022-09-07T22:48:51.721Z,20.32
2022-09-07T22:51:19.843Z,20.29
2022-09-07T22:53:47.764Z,20.26
2022-09-07T22:56:18.449Z,20.30
2022-09-07T22:58:46.818Z,20.31
2022-09-07T23:01:14.868Z,20.36
2022-09-07T23:03:44.137Z,20.39
2022-09-07T23:06:21.426Z,20.42
2022-09-07T23:08:49.410Z,20.37
2022-09-07T23:11:17.413Z,20.34
2022-09-07T23:13:45.301Z,20.27
2022-09-07T23:16:13.196Z,20.34
2022-09-07T23:18:41.522Z,20.33
2022-09-07T23:21:09.340Z,20.31
2022-09-07T23:23:38.631Z,20.34
2022-09-07T23:26:07.034Z,20.31
2022-09-07T23:28:35.426Z,20.23
2022-09-07T23:31:03.220Z,20.21
2022-09-07T23:33:31.570Z,20.17
2022-09-07T23:36:01.596Z,20.05
2022-09-07T23:38:29.920Z,19.98
2022-09-07T23:41:00.862Z,19.89
2022-09-07T23:43:30.087Z,19.91
2022-09-07T23:45:59.774Z,19.92
2022-09-07T23:48:27.784Z,19.91
2022-09-07T23:50:55.663Z,19.88
2022-09-07T23:53:23.711Z,19.81
2022-09-07T23:55:53.116Z,19.75
2022-09-07T23:58:23.073Z,19.68
